Terminal Aerodrome Forecast
Issued by NWS

Home | Current Version | Previous Version | Graphics & Text | Print | Product List | Glossary On
Versions: 1 2 3 4 5 6 7 8 9 10 11 12 13 14 15 16
000
FTUS43 KICT 161100
TAFHUT
TAF
KHUT 161131Z 1612/1712 06007KT P6SM OVC040
      TEMPO 1612/1615 BKN025
     FM161500 08007KT P6SM BKN030
     FM161900 16009KT P6SM BKN035=

USA.gov is the U.S. government's official web portal to all federal, state and local government web resources and services.